sensor_id;sensor_type;location;lat;lon;timestamp;P1;durP1;ratioP1;P2;durP2;ratioP2
14526;SDS011;7350;51.208;4.238;2023-04-24T00:01:24;5.25;;;3.50;;
14526;SDS011;7350;51.208;4.238;2023-04-24T00:03:51;3.92;;;3.55;;
14526;SDS011;7350;51.208;4.238;2023-04-24T00:06:20;4.03;;;3.30;;
14526;SDS011;7350;51.208;4.238;2023-04-24T00:08:48;4.75;;;3.45;;
14526;SDS011;7350;51.208;4.238;2023-04-24T00:11:15;5.45;;;3.80;;
14526;SDS011;7350;51.208;4.238;2023-04-24T00:13:42;4.65;;;3.83;;
14526;SDS011;7350;51.208;4.238;2023-04-24T00:16:09;4.78;;;3.83;;
14526;SDS011;7350;51.208;4.238;2023-04-24T00:18:36;4.28;;;3.50;;
14526;SDS011;7350;51.208;4.238;2023-04-24T00:21:03;6.03;;;4.10;;
14526;SDS011;7350;51.208;4.238;2023-04-24T00:23:32;4.57;;;3.85;;
14526;SDS011;7350;51.208;4.238;2023-04-24T00:25:59;4.60;;;4.20;;
14526;SDS011;7350;51.208;4.238;2023-04-24T00:28:27;5.22;;;4.25;;
14526;SDS011;7350;51.208;4.238;2023-04-24T00:30:54;4.90;;;3.92;;
14526;SDS011;7350;51.208;4.238;2023-04-24T00:33:21;4.82;;;4.15;;
14526;SDS011;7350;51.208;4.238;2023-04-24T00:35:48;4.85;;;3.63;;
14526;SDS011;7350;51.208;4.238;2023-04-24T00:38:15;4.30;;;3.78;;
14526;SDS011;7350;51.208;4.238;2023-04-24T00:40:43;4.85;;;4.30;;
14526;SDS011;7350;51.208;4.238;2023-04-24T00:43:10;4.57;;;3.83;;
14526;SDS011;7350;51.208;4.238;2023-04-24T00:45:37;4.32;;;3.90;;
14526;SDS011;7350;51.208;4.238;2023-04-24T00:48:04;5.22;;;3.42;;
14526;SDS011;7350;51.208;4.238;2023-04-24T00:50:32;4.57;;;3.70;;
14526;SDS011;7350;51.208;4.238;2023-04-24T00:53:01;4.60;;;3.80;;
14526;SDS011;7350;51.208;4.238;2023-04-24T00:55:28;4.10;;;3.30;;
14526;SDS011;7350;51.208;4.238;2023-04-24T00:57:58;3.78;;;3.30;;
14526;SDS011;7350;51.208;4.238;2023-04-24T01:00:25;5.07;;;3.92;;
14526;SDS011;7350;51.208;4.238;2023-04-24T01:02:53;4.78;;;3.83;;
14526;SDS011;7350;51.208;4.238;2023-04-24T01:05:20;4.65;;;3.63;;
14526;SDS011;7350;51.208;4.238;2023-04-24T01:07:47;4.70;;;3.85;;
14526;SDS011;7350;51.208;4.238;2023-04-24T01:10:14;4.97;;;4.10;;
14526;SDS011;7350;51.208;4.238;2023-04-24T01:12:42;4.43;;;4.00;;
14526;SDS011;7350;51.208;4.238;2023-04-24T01:15:11;4.40;;;4.00;;
14526;SDS011;7350;51.208;4.238;2023-04-24T01:17:38;4.93;;;3.60;;
14526;SDS011;7350;51.208;4.238;2023-04-24T01:20:06;3.65;;;3.33;;
14526;SDS011;7350;51.208;4.238;2023-04-24T01:22:35;4.88;;;3.88;;
14526;SDS011;7350;51.208;4.238;2023-04-24T01:25:03;4.57;;;4.03;;
14526;SDS011;7350;51.208;4.238;2023-04-24T01:27:30;4.45;;;4.00;;
14526;SDS011;7350;51.208;4.238;2023-04-24T01:29:58;4.90;;;4.40;;
14526;SDS011;7350;51.208;4.238;2023-04-24T01:32:25;4.22;;;3.75;;
14526;SDS011;7350;51.208;4.238;2023-04-24T01:34:52;4.82;;;4.32;;
14526;SDS011;7350;51.208;4.238;2023-04-24T01:37:20;4.68;;;4.25;;
14526;SDS011;7350;51.208;4.238;2023-04-24T01:39:48;4.20;;;3.80;;
14526;SDS011;7350;51.208;4.238;2023-04-24T01:42:16;4.03;;;3.67;;
14526;SDS011;7350;51.208;4.238;2023-04-24T01:44:43;4.97;;;4.15;;
14526;SDS011;7350;51.208;4.238;2023-04-24T01:47:10;4.75;;;3.88;;
14526;SDS011;7350;51.208;4.238;2023-04-24T01:49:37;4.75;;;4.25;;
14526;SDS011;7350;51.208;4.238;2023-04-24T01:52:05;3.85;;;3.50;;
14526;SDS011;7350;51.208;4.238;2023-04-24T01:54:32;3.72;;;3.42;;
14526;SDS011;7350;51.208;4.238;2023-04-24T01:57:01;4.32;;;3.72;;
14526;SDS011;7350;51.208;4.238;2023-04-24T01:59:28;4.00;;;3.50;;
14526;SDS011;7350;51.208;4.238;2023-04-24T02:01:55;5.47;;;3.47;;
14526;SDS011;7350;51.208;4.238;2023-04-24T02:04:22;3.95;;;3.55;;
14526;SDS011;7350;51.208;4.238;2023-04-24T02:06:49;4.60;;;3.40;;
14526;SDS011;7350;51.208;4.238;2023-04-24T02:09:16;3.70;;;3.28;;
14526;SDS011;7350;51.208;4.238;2023-04-24T02:11:43;4.18;;;3.42;;
14526;SDS011;7350;51.208;4.238;2023-04-24T02:14:11;4.00;;;3.60;;
14526;SDS011;7350;51.208;4.238;2023-04-24T02:16:38;3.80;;;3.00;;
14526;SDS011;7350;51.208;4.238;2023-04-24T02:19:05;3.90;;;3.60;;
14526;SDS011;7350;51.208;4.238;2023-04-24T02:21:32;3.50;;;3.17;;
14526;SDS011;7350;51.208;4.238;2023-04-24T02:23:59;3.70;;;3.40;;
14526;SDS011;7350;51.208;4.238;2023-04-24T02:26:26;3.88;;;3.17;;
14526;SDS011;7350;51.208;4.238;2023-04-24T02:28:53;3.40;;;3.10;;
14526;SDS011;7350;51.208;4.238;2023-04-24T02:31:22;4.20;;;3.50;;
14526;SDS011;7350;51.208;4.238;2023-04-24T02:33:49;3.42;;;3.17;;
14526;SDS011;7350;51.208;4.238;2023-04-24T02:36:16;4.00;;;3.63;;
14526;SDS011;7350;51.208;4.238;2023-04-24T02:38:43;4.57;;;3.50;;
14526;SDS011;7350;51.208;4.238;2023-04-24T02:41:10;3.33;;;3.03;;
14526;SDS011;7350;51.208;4.238;2023-04-24T02:43:37;3.67;;;3.35;;
14526;SDS011;7350;51.208;4.238;2023-04-24T02:46:04;4.00;;;3.40;;
14526;SDS011;7350;51.208;4.238;2023-04-24T02:48:32;3.70;;;3.33;;
14526;SDS011;7350;51.208;4.238;2023-04-24T02:50:59;3.17;;;2.88;;
14526;SDS011;7350;51.208;4.238;2023-04-24T02:53:26;3.42;;;3.13;;
14526;SDS011;7350;51.208;4.238;2023-04-24T02:55:55;3.33;;;3.03;;
14526;SDS011;7350;51.208;4.238;2023-04-24T02:58:22;3.30;;;3.00;;
14526;SDS011;7350;51.208;4.238;2023-04-24T03:00:49;3.45;;;3.15;;
14526;SDS011;7350;51.208;4.238;2023-04-24T03:03:19;3.30;;;3.00;;
14526;SDS011;7350;51.208;4.238;2023-04-24T03:05:48;3.90;;;3.50;;
14526;SDS011;7350;51.208;4.238;2023-04-24T03:08:15;3.33;;;3.03;;
14526;SDS011;7350;51.208;4.238;2023-04-24T03:10:42;4.13;;;3.28;;
14526;SDS011;7350;51.208;4.238;2023-04-24T03:13:09;3.72;;;3.38;;
14526;SDS011;7350;51.208;4.238;2023-04-24T03:15:36;3.28;;;2.97;;
14526;SDS011;7350;51.208;4.238;2023-04-24T03:18:03;2.90;;;2.70;;
14526;SDS011;7350;51.208;4.238;2023-04-24T03:20:30;3.80;;;3.40;;
14526;SDS011;7350;51.208;4.238;2023-04-24T03:22:58;3.17;;;2.92;;
14526;SDS011;7350;51.208;4.238;2023-04-24T03:25:25;3.40;;;2.92;;
14526;SDS011;7350;51.208;4.238;2023-04-24T03:27:52;3.17;;;2.85;;
14526;SDS011;7350;51.208;4.238;2023-04-24T03:30:20;3.83;;;2.70;;
14526;SDS011;7350;51.208;4.238;2023-04-24T03:32:47;3.30;;;2.95;;
14526;SDS011;7350;51.208;4.238;2023-04-24T03:35:14;3.83;;;2.88;;
14526;SDS011;7350;51.208;4.238;2023-04-24T03:37:41;3.13;;;2.67;;
14526;SDS011;7350;51.208;4.238;2023-04-24T03:40:10;3.08;;;2.88;;
14526;SDS011;7350;51.208;4.238;2023-04-24T03:42:37;3.28;;;2.97;;
14526;SDS011;7350;51.208;4.238;2023-04-24T03:45:04;3.20;;;3.00;;
14526;SDS011;7350;51.208;4.238;2023-04-24T03:47:32;2.95;;;2.75;;
14526;SDS011;7350;51.208;4.238;2023-04-24T03:49:59;4.15;;;2.78;;
14526;SDS011;7350;51.208;4.238;2023-04-24T03:52:26;3.15;;;2.85;;
14526;SDS011;7350;51.208;4.238;2023-04-24T03:54:53;3.22;;;2.97;;
14526;SDS011;7350;51.208;4.238;2023-04-24T03:57:21;3.33;;;3.00;;
14526;SDS011;7350;51.208;4.238;2023-04-24T03:59:48;3.47;;;2.80;;
14526;SDS011;7350;51.208;4.238;2023-04-24T04:02:16;3.53;;;2.78;;
14526;SDS011;7350;51.208;4.238;2023-04-24T04:04:43;2.63;;;2.40;;
14526;SDS011;7350;51.208;4.238;2023-04-24T04:07:10;2.50;;;2.30;;
14526;SDS011;7350;51.208;4.238;2023-04-24T04:09:38;2.75;;;2.50;;
14526;SDS011;7350;51.208;4.238;2023-04-24T04:12:05;2.95;;;2.15;;
14526;SDS011;7350;51.208;4.238;2023-04-24T04:14:33;3.63;;;2.72;;
14526;SDS011;7350;51.208;4.238;2023-04-24T04:17:00;3.22;;;2.20;;
14526;SDS011;7350;51.208;4.238;2023-04-24T04:19:27;2.70;;;2.15;;
14526;SDS011;7350;51.208;4.238;2023-04-24T04:21:54;2.85;;;2.10;;
14526;SDS011;7350;51.208;4.238;2023-04-24T04:24:21;2.50;;;2.30;;
14526;SDS011;7350;51.208;4.238;2023-04-24T04:26:49;2.78;;;2.25;;
14526;SDS011;7350;51.208;4.238;2023-04-24T04:29:17;3.50;;;2.53;;
14526;SDS011;7350;51.208;4.238;2023-04-24T04:31:45;2.65;;;2.40;;
14526;SDS011;7350;51.208;4.238;2023-04-24T04:34:12;2.63;;;2.42;;
14526;SDS011;7350;51.208;4.238;2023-04-24T04:36:40;3.15;;;2.40;;
14526;SDS011;7350;51.208;4.238;2023-04-24T04:39:08;3.35;;;2.67;;
14526;SDS011;7350;51.208;4.238;2023-04-24T04:41:34;4.75;;;2.30;;
14526;SDS011;7350;51.208;4.238;2023-04-24T04:44:02;2.95;;;2.30;;
14526;SDS011;7350;51.208;4.238;2023-04-24T04:46:30;2.80;;;2.10;;
14526;SDS011;7350;51.208;4.238;2023-04-24T04:49:00;3.25;;;2.20;;
14526;SDS011;7350;51.208;4.238;2023-04-24T04:51:28;2.90;;;2.17;;
14526;SDS011;7350;51.208;4.238;2023-04-24T04:53:56;3.90;;;2.30;;
14526;SDS011;7350;51.208;4.238;2023-04-24T04:56:23;2.45;;;2.00;;
14526;SDS011;7350;51.208;4.238;2023-04-24T04:58:49;3.70;;;2.15;;
14526;SDS011;7350;51.208;4.238;2023-04-24T05:01:17;2.30;;;2.10;;
14526;SDS011;7350;51.208;4.238;2023-04-24T05:03:44;2.58;;;1.98;;
14526;SDS011;7350;51.208;4.238;2023-04-24T05:06:12;3.70;;;1.95;;
14526;SDS011;7350;51.208;4.238;2023-04-24T05:08:40;2.70;;;1.80;;
14526;SDS011;7350;51.208;4.238;2023-04-24T05:11:07;2.45;;;1.70;;
14526;SDS011;7350;51.208;4.238;2023-04-24T05:13:34;2.50;;;1.73;;
14526;SDS011;7350;51.208;4.238;2023-04-24T05:16:01;3.80;;;1.90;;
14526;SDS011;7350;51.208;4.238;2023-04-24T05:18:28;2.75;;;1.80;;
14526;SDS011;7350;51.208;4.238;2023-04-24T05:20:55;2.58;;;1.60;;
14526;SDS011;7350;51.208;4.238;2023-04-24T05:23:23;2.13;;;1.80;;
14526;SDS011;7350;51.208;4.238;2023-04-24T05:25:50;3.20;;;1.90;;
14526;SDS011;7350;51.208;4.238;2023-04-24T05:28:17;2.28;;;1.63;;
14526;SDS011;7350;51.208;4.238;2023-04-24T05:30:44;2.00;;;1.80;;
14526;SDS011;7350;51.208;4.238;2023-04-24T05:33:11;1.45;;;1.35;;
14526;SDS011;7350;51.208;4.238;2023-04-24T05:35:39;3.75;;;1.60;;
14526;SDS011;7350;51.208;4.238;2023-04-24T05:38:10;2.00;;;1.58;;
14526;SDS011;7350;51.208;4.238;2023-04-24T05:40:39;1.63;;;1.52;;
14526;SDS011;7350;51.208;4.238;2023-04-24T05:43:06;2.85;;;1.73;;
14526;SDS011;7350;51.208;4.238;2023-04-24T05:45:33;3.47;;;1.88;;
14526;SDS011;7350;51.208;4.238;2023-04-24T05:48:01;2.40;;;1.90;;
14526;SDS011;7350;51.208;4.238;2023-04-24T05:50:28;2.40;;;1.70;;
14526;SDS011;7350;51.208;4.238;2023-04-24T05:52:55;2.45;;;1.88;;
14526;SDS011;7350;51.208;4.238;2023-04-24T05:55:23;2.45;;;1.90;;
14526;SDS011;7350;51.208;4.238;2023-04-24T05:57:53;1.98;;;1.77;;
14526;SDS011;7350;51.208;4.238;2023-04-24T06:00:20;3.33;;;2.28;;
14526;SDS011;7350;51.208;4.238;2023-04-24T06:02:47;2.25;;;2.00;;
14526;SDS011;7350;51.208;4.238;2023-04-24T06:05:14;2.08;;;1.90;;
14526;SDS011;7350;51.208;4.238;2023-04-24T06:07:41;2.38;;;2.05;;
14526;SDS011;7350;51.208;4.238;2023-04-24T06:10:08;3.40;;;2.00;;
14526;SDS011;7350;51.208;4.238;2023-04-24T06:12:36;3.33;;;2.30;;
14526;SDS011;7350;51.208;4.238;2023-04-24T06:15:05;2.85;;;1.92;;
14526;SDS011;7350;51.208;4.238;2023-04-24T06:17:33;2.33;;;1.92;;
14526;SDS011;7350;51.208;4.238;2023-04-24T06:20:00;3.95;;;2.20;;
14526;SDS011;7350;51.208;4.238;2023-04-24T06:22:29;3.63;;;2.20;;
14526;SDS011;7350;51.208;4.238;2023-04-24T06:24:56;3.35;;;2.35;;
14526;SDS011;7350;51.208;4.238;2023-04-24T06:27:23;2.90;;;2.22;;
14526;SDS011;7350;51.208;4.238;2023-04-24T06:29:49;4.28;;;2.30;;
14526;SDS011;7350;51.208;4.238;2023-04-24T06:32:21;3.33;;;2.30;;
14526;SDS011;7350;51.208;4.238;2023-04-24T06:34:48;3.78;;;2.38;;
14526;SDS011;7350;51.208;4.238;2023-04-24T06:37:15;3.78;;;2.38;;
14526;SDS011;7350;51.208;4.238;2023-04-24T06:39:42;3.70;;;2.50;;
14526;SDS011;7350;51.208;4.238;2023-04-24T06:42:09;7.15;;;2.65;;
14526;SDS011;7350;51.208;4.238;2023-04-24T06:44:36;3.70;;;2.85;;
14526;SDS011;7350;51.208;4.238;2023-04-24T06:47:06;4.85;;;2.50;;
14526;SDS011;7350;51.208;4.238;2023-04-24T06:49:34;5.78;;;2.47;;
14526;SDS011;7350;51.208;4.238;2023-04-24T06:52:02;18.67;;;3.03;;
14526;SDS011;7350;51.208;4.238;2023-04-24T06:54:29;4.05;;;2.47;;
14526;SDS011;7350;51.208;4.238;2023-04-24T06:56:56;5.20;;;2.58;;
14526;SDS011;7350;51.208;4.238;2023-04-24T06:59:23;6.45;;;2.95;;
14526;SDS011;7350;51.208;4.238;2023-04-24T07:01:51;4.65;;;2.47;;
14526;SDS011;7350;51.208;4.238;2023-04-24T07:04:18;3.67;;;2.58;;
14526;SDS011;7350;51.208;4.238;2023-04-24T07:06:46;6.82;;;2.63;;
14526;SDS011;7350;51.208;4.238;2023-04-24T07:09:14;4.55;;;2.63;;
14526;SDS011;7350;51.208;4.238;2023-04-24T07:11:43;3.47;;;2.63;;
14526;SDS011;7350;51.208;4.238;2023-04-24T07:14:10;4.63;;;2.38;;
14526;SDS011;7350;51.208;4.238;2023-04-24T07:16:37;7.22;;;3.28;;
14526;SDS011;7350;51.208;4.238;2023-04-24T07:19:04;6.43;;;3.22;;
14526;SDS011;7350;51.208;4.238;2023-04-24T07:21:32;4.30;;;2.70;;
14526;SDS011;7350;51.208;4.238;2023-04-24T07:24:00;4.65;;;2.33;;
14526;SDS011;7350;51.208;4.238;2023-04-24T07:26:28;7.40;;;2.92;;
14526;SDS011;7350;51.208;4.238;2023-04-24T07:28:56;3.63;;;2.42;;
14526;SDS011;7350;51.208;4.238;2023-04-24T07:31:23;6.25;;;2.90;;
14526;SDS011;7350;51.208;4.238;2023-04-24T07:33:50;4.18;;;2.50;;
14526;SDS011;7350;51.208;4.238;2023-04-24T07:36:17;5.60;;;2.70;;
14526;SDS011;7350;51.208;4.238;2023-04-24T07:38:45;5.97;;;2.65;;
14526;SDS011;7350;51.208;4.238;2023-04-24T07:41:13;6.13;;;2.55;;
14526;SDS011;7350;51.208;4.238;2023-04-24T07:43:40;6.05;;;2.38;;
14526;SDS011;7350;51.208;4.238;2023-04-24T07:46:08;4.45;;;2.67;;
14526;SDS011;7350;51.208;4.238;2023-04-24T07:48:35;5.30;;;2.45;;
14526;SDS011;7350;51.208;4.238;2023-04-24T07:51:02;4.80;;;2.35;;
14526;SDS011;7350;51.208;4.238;2023-04-24T07:53:29;6.32;;;2.80;;
14526;SDS011;7350;51.208;4.238;2023-04-24T07:55:56;6.20;;;3.13;;
14526;SDS011;7350;51.208;4.238;2023-04-24T07:58:25;7.65;;;3.03;;
14526;SDS011;7350;51.208;4.238;2023-04-24T08:00:52;6.68;;;2.45;;
14526;SDS011;7350;51.208;4.238;2023-04-24T08:03:19;8.57;;;3.33;;
14526;SDS011;7350;51.208;4.238;2023-04-24T08:05:45;7.60;;;3.13;;
14526;SDS011;7350;51.208;4.238;2023-04-24T08:08:13;8.88;;;2.83;;
14526;SDS011;7350;51.208;4.238;2023-04-24T08:10:39;8.20;;;3.58;;
14526;SDS011;7350;51.208;4.238;2023-04-24T08:13:06;7.70;;;3.13;;
14526;SDS011;7350;51.208;4.238;2023-04-24T08:15:35;10.38;;;3.30;;
14526;SDS011;7350;51.208;4.238;2023-04-24T08:18:02;8.32;;;3.15;;
14526;SDS011;7350;51.208;4.238;2023-04-24T08:20:29;7.43;;;2.90;;
14526;SDS011;7350;51.208;4.238;2023-04-24T08:22:56;9.18;;;3.40;;
14526;SDS011;7350;51.208;4.238;2023-04-24T08:25:23;8.30;;;3.40;;
14526;SDS011;7350;51.208;4.238;2023-04-24T08:27:50;8.38;;;3.40;;
14526;SDS011;7350;51.208;4.238;2023-04-24T08:30:17;7.60;;;3.13;;
14526;SDS011;7350;51.208;4.238;2023-04-24T08:32:45;8.90;;;3.13;;
14526;SDS011;7350;51.208;4.238;2023-04-24T08:35:12;9.38;;;3.47;;
14526;SDS011;7350;51.208;4.238;2023-04-24T08:37:39;6.65;;;2.83;;
14526;SDS011;7350;51.208;4.238;2023-04-24T08:40:13;6.85;;;3.15;;
14526;SDS011;7350;51.208;4.238;2023-04-24T08:42:41;6.25;;;2.90;;
14526;SDS011;7350;51.208;4.238;2023-04-24T08:45:09;7.28;;;3.17;;
14526;SDS011;7350;51.208;4.238;2023-04-24T08:47:37;5.95;;;2.70;;
14526;SDS011;7350;51.208;4.238;2023-04-24T08:50:07;8.35;;;2.90;;
14526;SDS011;7350;51.208;4.238;2023-04-24T08:52:35;7.13;;;2.97;;
14526;SDS011;7350;51.208;4.238;2023-04-24T08:55:02;6.00;;;2.90;;
14526;SDS011;7350;51.208;4.238;2023-04-24T08:57:29;7.22;;;3.05;;
14526;SDS011;7350;51.208;4.238;2023-04-24T08:59:57;6.43;;;2.88;;
14526;SDS011;7350;51.208;4.238;2023-04-24T09:02:25;7.68;;;2.60;;
14526;SDS011;7350;51.208;4.238;2023-04-24T09:04:52;8.65;;;2.75;;
14526;SDS011;7350;51.208;4.238;2023-04-24T09:07:21;5.25;;;2.40;;
14526;SDS011;7350;51.208;4.238;2023-04-24T09:09:50;5.88;;;2.65;;
14526;SDS011;7350;51.208;4.238;2023-04-24T09:12:17;4.40;;;2.20;;
14526;SDS011;7350;51.208;4.238;2023-04-24T09:14:45;5.47;;;2.55;;
14526;SDS011;7350;51.208;4.238;2023-04-24T09:17:12;7.43;;;2.60;;
14526;SDS011;7350;51.208;4.238;2023-04-24T09:19:39;5.75;;;2.72;;
14526;SDS011;7350;51.208;4.238;2023-04-24T09:22:06;4.68;;;2.67;;
14526;SDS011;7350;51.208;4.238;2023-04-24T09:24:35;6.45;;;2.60;;
14526;SDS011;7350;51.208;4.238;2023-04-24T09:27:02;6.03;;;2.30;;
14526;SDS011;7350;51.208;4.238;2023-04-24T09:29:30;4.88;;;2.53;;
14526;SDS011;7350;51.208;4.238;2023-04-24T09:31:58;6.15;;;2.58;;
14526;SDS011;7350;51.208;4.238;2023-04-24T09:34:25;6.65;;;2.85;;
14526;SDS011;7350;51.208;4.238;2023-04-24T09:36:53;5.97;;;2.58;;
14526;SDS011;7350;51.208;4.238;2023-04-24T09:39:20;5.97;;;2.28;;
14526;SDS011;7350;51.208;4.238;2023-04-24T09:41:49;5.68;;;2.10;;
14526;SDS011;7350;51.208;4.238;2023-04-24T09:44:18;6.55;;;2.90;;
14526;SDS011;7350;51.208;4.238;2023-04-24T09:46:48;5.72;;;2.67;;
14526;SDS011;7350;51.208;4.238;2023-04-24T09:49:20;4.10;;;2.45;;
14526;SDS011;7350;51.208;4.238;2023-04-24T09:51:48;8.43;;;2.70;;
14526;SDS011;7350;51.208;4.238;2023-04-24T09:54:16;6.13;;;2.17;;
14526;SDS011;7350;51.208;4.238;2023-04-24T09:56:45;5.13;;;2.30;;
14526;SDS011;7350;51.208;4.238;2023-04-24T09:59:15;4.95;;;2.53;;
14526;SDS011;7350;51.208;4.238;2023-04-24T10:01:43;3.92;;;2.30;;
14526;SDS011;7350;51.208;4.238;2023-04-24T10:04:17;5.45;;;2.70;;
14526;SDS011;7350;51.208;4.238;2023-04-24T10:06:45;6.43;;;2.47;;
14526;SDS011;7350;51.208;4.238;2023-04-24T10:09:14;3.80;;;2.35;;
14526;SDS011;7350;51.208;4.238;2023-04-24T10:11:41;4.18;;;2.38;;
14526;SDS011;7350;51.208;4.238;2023-04-24T10:14:10;5.40;;;2.22;;
14526;SDS011;7350;51.208;4.238;2023-04-24T10:16:40;5.95;;;2.17;;
14526;SDS011;7350;51.208;4.238;2023-04-24T10:19:09;8.43;;;2.58;;
14526;SDS011;7350;51.208;4.238;2023-04-24T10:21:38;5.68;;;2.22;;
14526;SDS011;7350;51.208;4.238;2023-04-24T10:24:11;5.80;;;1.92;;
14526;SDS011;7350;51.208;4.238;2023-04-24T10:26:39;5.53;;;2.53;;
14526;SDS011;7350;51.208;4.238;2023-04-24T10:29:07;6.85;;;2.33;;
14526;SDS011;7350;51.208;4.238;2023-04-24T10:31:37;5.18;;;2.30;;
14526;SDS011;7350;51.208;4.238;2023-04-24T10:34:06;6.60;;;2.30;;
14526;SDS011;7350;51.208;4.238;2023-04-24T10:36:34;5.88;;;1.80;;
14526;SDS011;7350;51.208;4.238;2023-04-24T10:39:05;4.35;;;2.28;;
14526;SDS011;7350;51.208;4.238;2023-04-24T10:41:36;4.80;;;2.25;;
14526;SDS011;7350;51.208;4.238;2023-04-24T10:44:04;5.60;;;1.83;;
14526;SDS011;7350;51.208;4.238;2023-04-24T10:46:32;4.60;;;2.00;;
14526;SDS011;7350;51.208;4.238;2023-04-24T10:48:59;4.00;;;2.17;;
14526;SDS011;7350;51.208;4.238;2023-04-24T10:51:44;4.63;;;2.35;;
14526;SDS011;7350;51.208;4.238;2023-04-24T10:54:22;6.97;;;2.20;;
14526;SDS011;7350;51.208;4.238;2023-04-24T10:56:50;5.53;;;1.95;;
14526;SDS011;7350;51.208;4.238;2023-04-24T10:59:23;7.45;;;2.30;;
14526;SDS011;7350;51.208;4.238;2023-04-24T11:01:52;6.18;;;2.10;;
14526;SDS011;7350;51.208;4.238;2023-04-24T11:04:28;4.70;;;2.17;;
14526;SDS011;7350;51.208;4.238;2023-04-24T11:06:57;6.38;;;2.28;;
14526;SDS011;7350;51.208;4.238;2023-04-24T11:09:26;5.75;;;1.90;;
14526;SDS011;7350;51.208;4.238;2023-04-24T11:12:03;4.80;;;1.92;;
14526;SDS011;7350;51.208;4.238;2023-04-24T11:17:28;13.05;;;5.40;;
14526;SDS011;7350;51.208;4.238;2023-04-24T11:20:00;13.40;;;10.05;;
14526;SDS011;7350;51.208;4.238;2023-04-24T11:22:30;17.58;;;11.88;;
14526;SDS011;7350;51.208;4.238;2023-04-24T11:25:00;17.30;;;11.45;;
14526;SDS011;7350;51.208;4.238;2023-04-24T11:27:29;16.05;;;10.77;;
14526;SDS011;7350;51.208;4.238;2023-04-24T11:29:59;13.88;;;9.43;;
14526;SDS011;7350;51.208;4.238;2023-04-24T11:32:27;13.32;;;9.32;;
14526;SDS011;7350;51.208;4.238;2023-04-24T11:34:56;14.35;;;8.63;;
14526;SDS011;7350;51.208;4.238;2023-04-24T11:37:25;11.90;;;8.80;;
14526;SDS011;7350;51.208;4.238;2023-04-24T11:39:56;11.85;;;8.15;;
14526;SDS011;7350;51.208;4.238;2023-04-24T11:42:24;11.48;;;7.65;;
14526;SDS011;7350;51.208;4.238;2023-04-24T11:44:52;10.15;;;7.18;;
14526;SDS011;7350;51.208;4.238;2023-04-24T11:47:20;10.35;;;6.72;;
14526;SDS011;7350;51.208;4.238;2023-04-24T11:49:54;10.18;;;6.22;;
14526;SDS011;7350;51.208;4.238;2023-04-24T11:52:21;9.73;;;5.97;;
14526;SDS011;7350;51.208;4.238;2023-04-24T11:54:48;8.38;;;5.35;;
14526;SDS011;7350;51.208;4.238;2023-04-24T11:57:17;6.82;;;5.57;;
14526;SDS011;7350;51.208;4.238;2023-04-24T11:59:46;9.70;;;5.47;;
14526;SDS011;7350;51.208;4.238;2023-04-24T12:02:22;8.02;;;4.80;;
14526;SDS011;7350;51.208;4.238;2023-04-24T12:04:50;8.90;;;4.55;;
14526;SDS011;7350;51.208;4.238;2023-04-24T12:07:18;8.25;;;4.25;;
14526;SDS011;7350;51.208;4.238;2023-04-24T12:09:45;11.15;;;4.40;;
14526;SDS011;7350;51.208;4.238;2023-04-24T12:12:14;8.23;;;4.35;;
14526;SDS011;7350;51.208;4.238;2023-04-24T12:14:47;10.50;;;4.28;;
14526;SDS011;7350;51.208;4.238;2023-04-24T12:17:15;8.07;;;4.00;;
14526;SDS011;7350;51.208;4.238;2023-04-24T12:19:46;7.18;;;3.70;;
14526;SDS011;7350;51.208;4.238;2023-04-24T12:22:14;5.60;;;3.47;;
14526;SDS011;7350;51.208;4.238;2023-04-24T12:24:57;6.30;;;3.42;;
14526;SDS011;7350;51.208;4.238;2023-04-24T12:27:26;5.65;;;3.15;;
14526;SDS011;7350;51.208;4.238;2023-04-24T12:29:56;6.22;;;3.50;;
14526;SDS011;7350;51.208;4.238;2023-04-24T12:32:24;5.43;;;3.25;;
14526;SDS011;7350;51.208;4.238;2023-04-24T12:34:52;5.80;;;3.10;;
14526;SDS011;7350;51.208;4.238;2023-04-24T12:37:20;3.85;;;3.08;;
14526;SDS011;7350;51.208;4.238;2023-04-24T12:40:03;5.47;;;3.70;;
14526;SDS011;7350;51.208;4.238;2023-04-24T12:42:32;4.10;;;2.97;;
14526;SDS011;7350;51.208;4.238;2023-04-24T12:45:02;5.47;;;3.20;;
14526;SDS011;7350;51.208;4.238;2023-04-24T12:47:30;6.95;;;2.70;;
14526;SDS011;7350;51.208;4.238;2023-04-24T12:49:58;4.72;;;2.75;;
14526;SDS011;7350;51.208;4.238;2023-04-24T12:52:25;3.78;;;2.80;;
14526;SDS011;7350;51.208;4.238;2023-04-24T12:54:54;4.82;;;2.78;;
14526;SDS011;7350;51.208;4.238;2023-04-24T12:57:22;5.18;;;2.28;;
14526;SDS011;7350;51.208;4.238;2023-04-24T12:59:49;3.72;;;2.28;;
14526;SDS011;7350;51.208;4.238;2023-04-24T13:02:18;3.83;;;2.47;;
14526;SDS011;7350;51.208;4.238;2023-04-24T13:04:46;6.13;;;2.60;;
14526;SDS011;7350;51.208;4.238;2023-04-24T13:07:13;4.85;;;2.40;;
14526;SDS011;7350;51.208;4.238;2023-04-24T13:09:43;4.00;;;2.30;;
14526;SDS011;7350;51.208;4.238;2023-04-24T13:12:11;4.57;;;2.38;;
14526;SDS011;7350;51.208;4.238;2023-04-24T13:14:38;3.58;;;2.00;;
14526;SDS011;7350;51.208;4.238;2023-04-24T13:17:05;3.22;;;2.28;;
14526;SDS011;7350;51.208;4.238;2023-04-24T13:19:36;3.95;;;2.10;;
14526;SDS011;7350;51.208;4.238;2023-04-24T13:22:04;4.68;;;2.05;;
14526;SDS011;7350;51.208;4.238;2023-04-24T13:24:31;4.55;;;2.17;;
14526;SDS011;7350;51.208;4.238;2023-04-24T13:26:59;4.75;;;2.17;;
14526;SDS011;7350;51.208;4.238;2023-04-24T13:29:27;4.05;;;2.17;;
14526;SDS011;7350;51.208;4.238;2023-04-24T13:31:54;5.07;;;2.03;;
14526;SDS011;7350;51.208;4.238;2023-04-24T13:34:22;4.40;;;2.17;;
14526;SDS011;7350;51.208;4.238;2023-04-24T13:36:50;3.35;;;1.80;;
14526;SDS011;7350;51.208;4.238;2023-04-24T13:39:19;3.17;;;2.00;;
14526;SDS011;7350;51.208;4.238;2023-04-24T13:41:46;3.85;;;1.70;;
14526;SDS011;7350;51.208;4.238;2023-04-24T13:44:13;3.53;;;1.80;;
14526;SDS011;7350;51.208;4.238;2023-04-24T13:46:41;3.67;;;1.90;;
14526;SDS011;7350;51.208;4.238;2023-04-24T13:49:09;2.78;;;1.65;;
14526;SDS011;7350;51.208;4.238;2023-04-24T13:51:36;3.05;;;1.80;;
14526;SDS011;7350;51.208;4.238;2023-04-24T13:54:05;3.58;;;2.00;;
14526;SDS011;7350;51.208;4.238;2023-04-24T13:56:32;4.55;;;1.90;;
14526;SDS011;7350;51.208;4.238;2023-04-24T13:58:59;3.33;;;1.60;;
14526;SDS011;7350;51.208;4.238;2023-04-24T14:01:26;5.70;;;1.90;;
14526;SDS011;7350;51.208;4.238;2023-04-24T14:03:53;3.33;;;1.70;;
14526;SDS011;7350;51.208;4.238;2023-04-24T14:06:22;3.60;;;1.50;;
14526;SDS011;7350;51.208;4.238;2023-04-24T14:08:49;2.03;;;1.27;;
14526;SDS011;7350;51.208;4.238;2023-04-24T14:11:18;3.10;;;1.52;;
14526;SDS011;7350;51.208;4.238;2023-04-24T14:13:45;2.65;;;1.65;;
14526;SDS011;7350;51.208;4.238;2023-04-24T14:16:12;2.47;;;1.48;;
14526;SDS011;7350;51.208;4.238;2023-04-24T14:18:40;3.97;;;1.45;;
14526;SDS011;7350;51.208;4.238;2023-04-24T14:21:07;3.47;;;1.45;;
14526;SDS011;7350;51.208;4.238;2023-04-24T14:23:34;2.42;;;1.35;;
14526;SDS011;7350;51.208;4.238;2023-04-24T14:26:01;2.05;;;1.23;;
14526;SDS011;7350;51.208;4.238;2023-04-24T14:28:30;2.22;;;1.38;;
14526;SDS011;7350;51.208;4.238;2023-04-24T14:30:57;5.32;;;1.50;;
14526;SDS011;7350;51.208;4.238;2023-04-24T14:33:24;1.83;;;1.25;;
14526;SDS011;7350;51.208;4.238;2023-04-24T14:35:51;3.38;;;1.55;;
14526;SDS011;7350;51.208;4.238;2023-04-24T14:38:18;3.38;;;1.60;;
14526;SDS011;7350;51.208;4.238;2023-04-24T14:40:45;4.35;;;1.40;;
14526;SDS011;7350;51.208;4.238;2023-04-24T14:43:12;3.05;;;1.33;;
14526;SDS011;7350;51.208;4.238;2023-04-24T14:45:40;3.38;;;1.77;;
14526;SDS011;7350;51.208;4.238;2023-04-24T14:48:07;2.40;;;1.30;;
14526;SDS011;7350;51.208;4.238;2023-04-24T14:50:34;4.10;;;1.50;;
14526;SDS011;7350;51.208;4.238;2023-04-24T14:53:01;1.77;;;1.20;;
14526;SDS011;7350;51.208;4.238;2023-04-24T14:55:29;2.63;;;1.20;;
14526;SDS011;7350;51.208;4.238;2023-04-24T14:57:56;1.67;;;1.10;;
14526;SDS011;7350;51.208;4.238;2023-04-24T15:00:23;3.08;;;1.33;;
14526;SDS011;7350;51.208;4.238;2023-04-24T15:02:51;2.65;;;1.08;;
14526;SDS011;7350;51.208;4.238;2023-04-24T15:05:18;2.33;;;1.10;;
14526;SDS011;7350;51.208;4.238;2023-04-24T15:07:45;2.25;;;1.13;;